sensor_id;sensor_type;location;lat;lon;timestamp;P1;durP1;ratioP1;P2;durP2;ratioP2
24650;SDS011;12783;48.824;8.662;2022-12-18T00:01:04;27.85;;;11.30;;
24650;SDS011;12783;48.824;8.662;2022-12-18T00:03:32;21.90;;;9.98;;
24650;SDS011;12783;48.824;8.662;2022-12-18T00:05:59;23.35;;;9.93;;
24650;SDS011;12783;48.824;8.662;2022-12-18T00:08:26;22.70;;;10.43;;
24650;SDS011;12783;48.824;8.662;2022-12-18T00:10:53;21.02;;;9.88;;
24650;SDS011;12783;48.824;8.662;2022-12-18T00:13:25;29.95;;;10.80;;
24650;SDS011;12783;48.824;8.662;2022-12-18T00:15:53;23.58;;;10.32;;
24650;SDS011;12783;48.824;8.662;2022-12-18T00:18:22;25.52;;;10.27;;
24650;SDS011;12783;48.824;8.662;2022-12-18T00:20:48;22.00;;;10.40;;
24650;SDS011;12783;48.824;8.662;2022-12-18T00:23:15;21.38;;;9.98;;
24650;SDS011;12783;48.824;8.662;2022-12-18T00:25:42;20.75;;;9.52;;
24650;SDS011;12783;48.824;8.662;2022-12-18T00:28:08;19.90;;;9.43;;
24650;SDS011;12783;48.824;8.662;2022-12-18T00:30:35;18.20;;;9.70;;
24650;SDS011;12783;48.824;8.662;2022-12-18T00:33:02;21.15;;;9.77;;
24650;SDS011;12783;48.824;8.662;2022-12-18T00:35:28;18.33;;;9.25;;
24650;SDS011;12783;48.824;8.662;2022-12-18T00:37:55;19.38;;;9.52;;
24650;SDS011;12783;48.824;8.662;2022-12-18T00:40:22;23.00;;;10.55;;
24650;SDS011;12783;48.824;8.662;2022-12-18T00:42:49;23.15;;;10.10;;
24650;SDS011;12783;48.824;8.662;2022-12-18T00:45:22;18.35;;;8.70;;
24650;SDS011;12783;48.824;8.662;2022-12-18T00:47:53;21.85;;;9.88;;
24650;SDS011;12783;48.824;8.662;2022-12-18T00:50:21;18.33;;;9.00;;
24650;SDS011;12783;48.824;8.662;2022-12-18T00:52:48;24.92;;;10.10;;
24650;SDS011;12783;48.824;8.662;2022-12-18T00:55:15;20.05;;;9.10;;
24650;SDS011;12783;48.824;8.662;2022-12-18T00:57:42;24.70;;;10.13;;
24650;SDS011;12783;48.824;8.662;2022-12-18T01:00:11;25.80;;;10.77;;
24650;SDS011;12783;48.824;8.662;2022-12-18T01:02:39;28.55;;;10.55;;
24650;SDS011;12783;48.824;8.662;2022-12-18T01:05:06;23.67;;;10.38;;
24650;SDS011;12783;48.824;8.662;2022-12-18T01:07:34;21.98;;;9.35;;
24650;SDS011;12783;48.824;8.662;2022-12-18T01:10:01;23.02;;;9.50;;
24650;SDS011;12783;48.824;8.662;2022-12-18T01:12:28;23.80;;;9.73;;
24650;SDS011;12783;48.824;8.662;2022-12-18T01:14:55;21.50;;;9.65;;
24650;SDS011;12783;48.824;8.662;2022-12-18T01:17:21;21.95;;;9.30;;
24650;SDS011;12783;48.824;8.662;2022-12-18T01:19:48;20.77;;;8.60;;
24650;SDS011;12783;48.824;8.662;2022-12-18T01:22:15;24.00;;;10.00;;
24650;SDS011;12783;48.824;8.662;2022-12-18T01:24:42;22.17;;;9.73;;
24650;SDS011;12783;48.824;8.662;2022-12-18T01:27:08;22.20;;;9.27;;
24650;SDS011;12783;48.824;8.662;2022-12-18T01:29:35;20.88;;;8.95;;
24650;SDS011;12783;48.824;8.662;2022-12-18T01:32:02;21.40;;;9.32;;
24650;SDS011;12783;48.824;8.662;2022-12-18T01:34:29;18.92;;;8.93;;
24650;SDS011;12783;48.824;8.662;2022-12-18T01:36:55;24.15;;;9.98;;
24650;SDS011;12783;48.824;8.662;2022-12-18T01:39:22;21.73;;;8.93;;
24650;SDS011;12783;48.824;8.662;2022-12-18T01:41:49;19.13;;;8.45;;
24650;SDS011;12783;48.824;8.662;2022-12-18T01:47:24;20.35;;;8.52;;
24650;SDS011;12783;48.824;8.662;2022-12-18T01:52:56;21.50;;;8.82;;
24650;SDS011;12783;48.824;8.662;2022-12-18T01:55:28;21.98;;;9.30;;
24650;SDS011;12783;48.824;8.662;2022-12-18T01:57:57;20.10;;;8.63;;
24650;SDS011;12783;48.824;8.662;2022-12-18T02:00:25;20.42;;;9.05;;
24650;SDS011;12783;48.824;8.662;2022-12-18T02:02:52;18.50;;;8.50;;
24650;SDS011;12783;48.824;8.662;2022-12-18T02:05:43;20.20;;;8.63;;
24650;SDS011;12783;48.824;8.662;2022-12-18T02:08:34;21.38;;;8.98;;
24650;SDS011;12783;48.824;8.662;2022-12-18T02:11:28;26.38;;;8.75;;
24650;SDS011;12783;48.824;8.662;2022-12-18T02:14:31;18.58;;;8.15;;
24650;SDS011;12783;48.824;8.662;2022-12-18T02:19:39;20.02;;;8.60;;
24650;SDS011;12783;48.824;8.662;2022-12-18T02:22:44;18.95;;;8.77;;
24650;SDS011;12783;48.824;8.662;2022-12-18T02:27:49;16.52;;;8.25;;
24650;SDS011;12783;48.824;8.662;2022-12-18T02:30:17;22.42;;;8.93;;
24650;SDS011;12783;48.824;8.662;2022-12-18T02:32:49;18.35;;;8.90;;
24650;SDS011;12783;48.824;8.662;2022-12-18T02:35:20;20.55;;;9.30;;
24650;SDS011;12783;48.824;8.662;2022-12-18T02:37:51;20.67;;;9.02;;
24650;SDS011;12783;48.824;8.662;2022-12-18T02:40:20;21.27;;;9.48;;
24650;SDS011;12783;48.824;8.662;2022-12-18T02:42:47;18.38;;;7.78;;
24650;SDS011;12783;48.824;8.662;2022-12-18T02:45:14;22.02;;;9.48;;
24650;SDS011;12783;48.824;8.662;2022-12-18T02:47:42;22.17;;;8.60;;
24650;SDS011;12783;48.824;8.662;2022-12-18T02:53:36;21.65;;;8.55;;
24650;SDS011;12783;48.824;8.662;2022-12-18T02:56:13;21.98;;;8.82;;
24650;SDS011;12783;48.824;8.662;2022-12-18T03:03:51;19.65;;;9.00;;
24650;SDS011;12783;48.824;8.662;2022-12-18T03:06:25;22.50;;;9.38;;
24650;SDS011;12783;48.824;8.662;2022-12-18T03:08:57;22.67;;;8.95;;
24650;SDS011;12783;48.824;8.662;2022-12-18T03:11:26;21.80;;;9.50;;
24650;SDS011;12783;48.824;8.662;2022-12-18T03:14:15;19.33;;;8.40;;
24650;SDS011;12783;48.824;8.662;2022-12-18T03:16:42;19.13;;;8.90;;
24650;SDS011;12783;48.824;8.662;2022-12-18T03:19:11;18.95;;;8.32;;
24650;SDS011;12783;48.824;8.662;2022-12-18T03:21:49;20.60;;;8.55;;
24650;SDS011;12783;48.824;8.662;2022-12-18T03:24:19;18.15;;;8.82;;
24650;SDS011;12783;48.824;8.662;2022-12-18T03:26:48;21.77;;;9.15;;
24650;SDS011;12783;48.824;8.662;2022-12-18T03:29:21;19.77;;;8.60;;
24650;SDS011;12783;48.824;8.662;2022-12-18T03:31:54;18.48;;;8.75;;
24650;SDS011;12783;48.824;8.662;2022-12-18T03:34:23;17.92;;;8.43;;
24650;SDS011;12783;48.824;8.662;2022-12-18T03:36:54;18.00;;;8.02;;
24650;SDS011;12783;48.824;8.662;2022-12-18T03:39:21;14.90;;;7.22;;
24650;SDS011;12783;48.824;8.662;2022-12-18T03:42:05;21.40;;;9.40;;
24650;SDS011;12783;48.824;8.662;2022-12-18T03:44:41;21.38;;;9.23;;
24650;SDS011;12783;48.824;8.662;2022-12-18T03:47:27;20.95;;;8.35;;
24650;SDS011;12783;48.824;8.662;2022-12-18T03:50:15;19.13;;;9.07;;
24650;SDS011;12783;48.824;8.662;2022-12-18T03:55:36;21.83;;;9.07;;
24650;SDS011;12783;48.824;8.662;2022-12-18T03:58:03;19.10;;;8.35;;
24650;SDS011;12783;48.824;8.662;2022-12-18T04:00:31;18.00;;;8.65;;
24650;SDS011;12783;48.824;8.662;2022-12-18T04:02:58;18.90;;;7.78;;
24650;SDS011;12783;48.824;8.662;2022-12-18T04:05:26;16.35;;;8.10;;
24650;SDS011;12783;48.824;8.662;2022-12-18T04:07:53;18.77;;;8.65;;
24650;SDS011;12783;48.824;8.662;2022-12-18T04:10:21;18.88;;;8.60;;
24650;SDS011;12783;48.824;8.662;2022-12-18T04:12:48;23.92;;;9.13;;
24650;SDS011;12783;48.824;8.662;2022-12-18T04:15:14;17.17;;;8.25;;
24650;SDS011;12783;48.824;8.662;2022-12-18T04:17:43;19.23;;;8.80;;
24650;SDS011;12783;48.824;8.662;2022-12-18T04:20:14;22.25;;;9.10;;
24650;SDS011;12783;48.824;8.662;2022-12-18T04:22:41;20.15;;;9.60;;
24650;SDS011;12783;48.824;8.662;2022-12-18T04:25:08;18.73;;;8.90;;
24650;SDS011;12783;48.824;8.662;2022-12-18T04:27:34;22.08;;;9.32;;
24650;SDS011;12783;48.824;8.662;2022-12-18T04:30:01;22.90;;;10.23;;
24650;SDS011;12783;48.824;8.662;2022-12-18T04:32:28;30.33;;;12.45;;
24650;SDS011;12783;48.824;8.662;2022-12-18T04:34:55;16.65;;;8.52;;
24650;SDS011;12783;48.824;8.662;2022-12-18T04:37:21;18.33;;;8.52;;
24650;SDS011;12783;48.824;8.662;2022-12-18T04:39:48;18.63;;;8.25;;
24650;SDS011;12783;48.824;8.662;2022-12-18T04:42:15;22.02;;;9.10;;
24650;SDS011;12783;48.824;8.662;2022-12-18T04:44:41;21.05;;;8.32;;
24650;SDS011;12783;48.824;8.662;2022-12-18T04:47:08;16.25;;;8.40;;
24650;SDS011;12783;48.824;8.662;2022-12-18T04:49:35;19.55;;;8.90;;
24650;SDS011;12783;48.824;8.662;2022-12-18T04:52:01;18.00;;;8.77;;
24650;SDS011;12783;48.824;8.662;2022-12-18T04:54:28;18.55;;;8.65;;
24650;SDS011;12783;48.824;8.662;2022-12-18T04:56:55;24.65;;;8.73;;
24650;SDS011;12783;48.824;8.662;2022-12-18T04:59:22;21.00;;;9.20;;
24650;SDS011;12783;48.824;8.662;2022-12-18T05:01:49;19.08;;;9.48;;
24650;SDS011;12783;48.824;8.662;2022-12-18T05:04:16;20.70;;;9.00;;
24650;SDS011;12783;48.824;8.662;2022-12-18T05:06:43;17.98;;;8.88;;
24650;SDS011;12783;48.824;8.662;2022-12-18T05:09:10;20.33;;;8.63;;
24650;SDS011;12783;48.824;8.662;2022-12-18T05:11:36;19.00;;;9.05;;
24650;SDS011;12783;48.824;8.662;2022-12-18T05:14:03;21.83;;;9.40;;
24650;SDS011;12783;48.824;8.662;2022-12-18T05:16:30;21.63;;;9.10;;
24650;SDS011;12783;48.824;8.662;2022-12-18T05:18:57;20.80;;;9.73;;
24650;SDS011;12783;48.824;8.662;2022-12-18T05:21:24;19.38;;;8.45;;
24650;SDS011;12783;48.824;8.662;2022-12-18T05:23:51;18.52;;;8.43;;
24650;SDS011;12783;48.824;8.662;2022-12-18T05:26:18;18.10;;;9.07;;
24650;SDS011;12783;48.824;8.662;2022-12-18T05:28:45;15.90;;;7.65;;
24650;SDS011;12783;48.824;8.662;2022-12-18T05:31:12;18.63;;;8.10;;
24650;SDS011;12783;48.824;8.662;2022-12-18T05:33:39;19.40;;;8.82;;
24650;SDS011;12783;48.824;8.662;2022-12-18T05:36:06;20.00;;;9.25;;
24650;SDS011;12783;48.824;8.662;2022-12-18T05:38:35;19.08;;;8.60;;
24650;SDS011;12783;48.824;8.662;2022-12-18T05:41:03;21.27;;;9.05;;
24650;SDS011;12783;48.824;8.662;2022-12-18T05:43:30;16.65;;;7.85;;
24650;SDS011;12783;48.824;8.662;2022-12-18T05:46:03;21.38;;;8.68;;
24650;SDS011;12783;48.824;8.662;2022-12-18T05:48:30;23.85;;;9.20;;
24650;SDS011;12783;48.824;8.662;2022-12-18T05:51:02;21.63;;;8.68;;
24650;SDS011;12783;48.824;8.662;2022-12-18T05:53:31;20.65;;;9.15;;
24650;SDS011;12783;48.824;8.662;2022-12-18T05:56:02;19.67;;;8.80;;
24650;SDS011;12783;48.824;8.662;2022-12-18T05:58:31;18.25;;;8.55;;
24650;SDS011;12783;48.824;8.662;2022-12-18T06:01:05;19.67;;;9.10;;
24650;SDS011;12783;48.824;8.662;2022-12-18T06:03:34;17.90;;;8.35;;
24650;SDS011;12783;48.824;8.662;2022-12-18T06:06:01;20.27;;;9.57;;
24650;SDS011;12783;48.824;8.662;2022-12-18T06:08:28;20.27;;;8.15;;
24650;SDS011;12783;48.824;8.662;2022-12-18T06:10:54;19.20;;;8.65;;
24650;SDS011;12783;48.824;8.662;2022-12-18T06:13:21;21.58;;;8.75;;
24650;SDS011;12783;48.824;8.662;2022-12-18T06:15:49;19.73;;;9.10;;
24650;SDS011;12783;48.824;8.662;2022-12-18T06:18:15;20.92;;;9.13;;
24650;SDS011;12783;48.824;8.662;2022-12-18T06:20:42;21.63;;;8.65;;
24650;SDS011;12783;48.824;8.662;2022-12-18T06:23:09;21.13;;;8.45;;
24650;SDS011;12783;48.824;8.662;2022-12-18T06:25:39;17.10;;;7.68;;
24650;SDS011;12783;48.824;8.662;2022-12-18T06:28:05;18.10;;;8.45;;
24650;SDS011;12783;48.824;8.662;2022-12-18T06:30:32;20.92;;;8.90;;
24650;SDS011;12783;48.824;8.662;2022-12-18T06:32:59;22.92;;;8.88;;
24650;SDS011;12783;48.824;8.662;2022-12-18T06:35:26;22.20;;;9.27;;
24650;SDS011;12783;48.824;8.662;2022-12-18T06:37:52;23.42;;;9.60;;
24650;SDS011;12783;48.824;8.662;2022-12-18T06:40:19;22.20;;;9.02;;
24650;SDS011;12783;48.824;8.662;2022-12-18T06:42:46;24.38;;;11.32;;
24650;SDS011;12783;48.824;8.662;2022-12-18T06:45:13;23.95;;;9.45;;
24650;SDS011;12783;48.824;8.662;2022-12-18T06:47:39;21.38;;;9.30;;
24650;SDS011;12783;48.824;8.662;2022-12-18T06:50:06;23.23;;;9.70;;
24650;SDS011;12783;48.824;8.662;2022-12-18T06:52:33;25.27;;;10.07;;
24650;SDS011;12783;48.824;8.662;2022-12-18T06:55:00;25.33;;;9.77;;
24650;SDS011;12783;48.824;8.662;2022-12-18T06:57:27;25.67;;;9.48;;
24650;SDS011;12783;48.824;8.662;2022-12-18T06:59:54;27.40;;;9.77;;
24650;SDS011;12783;48.824;8.662;2022-12-18T07:02:20;22.98;;;10.13;;
24650;SDS011;12783;48.824;8.662;2022-12-18T07:04:47;23.02;;;9.35;;
24650;SDS011;12783;48.824;8.662;2022-12-18T07:07:14;21.50;;;10.10;;
24650;SDS011;12783;48.824;8.662;2022-12-18T07:09:41;26.75;;;10.25;;
24650;SDS011;12783;48.824;8.662;2022-12-18T07:12:08;24.52;;;10.38;;
24650;SDS011;12783;48.824;8.662;2022-12-18T07:14:34;25.73;;;10.68;;
24650;SDS011;12783;48.824;8.662;2022-12-18T07:17:01;23.02;;;10.07;;
24650;SDS011;12783;48.824;8.662;2022-12-18T07:19:29;27.42;;;10.55;;
24650;SDS011;12783;48.824;8.662;2022-12-18T07:21:56;29.23;;;11.07;;
24650;SDS011;12783;48.824;8.662;2022-12-18T07:24:23;26.55;;;10.10;;
24650;SDS011;12783;48.824;8.662;2022-12-18T07:26:49;23.63;;;9.32;;
24650;SDS011;12783;48.824;8.662;2022-12-18T07:29:16;26.75;;;10.32;;
24650;SDS011;12783;48.824;8.662;2022-12-18T07:31:43;24.85;;;10.48;;
24650;SDS011;12783;48.824;8.662;2022-12-18T07:34:13;30.83;;;10.95;;
24650;SDS011;12783;48.824;8.662;2022-12-18T07:36:41;22.45;;;10.02;;
24650;SDS011;12783;48.824;8.662;2022-12-18T07:39:08;24.58;;;9.25;;
24650;SDS011;12783;48.824;8.662;2022-12-18T07:41:36;24.30;;;9.35;;
24650;SDS011;12783;48.824;8.662;2022-12-18T07:44:09;26.67;;;9.75;;
24650;SDS011;12783;48.824;8.662;2022-12-18T07:46:36;23.70;;;9.18;;
24650;SDS011;12783;48.824;8.662;2022-12-18T07:49:03;28.65;;;10.93;;
24650;SDS011;12783;48.824;8.662;2022-12-18T07:51:30;26.10;;;10.23;;
24650;SDS011;12783;48.824;8.662;2022-12-18T07:53:57;22.77;;;9.68;;
24650;SDS011;12783;48.824;8.662;2022-12-18T07:56:24;27.98;;;9.82;;
24650;SDS011;12783;48.824;8.662;2022-12-18T07:58:54;24.95;;;9.68;;
24650;SDS011;12783;48.824;8.662;2022-12-18T08:01:21;21.27;;;9.50;;
24650;SDS011;12783;48.824;8.662;2022-12-18T08:03:48;21.45;;;9.35;;
24650;SDS011;12783;48.824;8.662;2022-12-18T08:06:17;25.25;;;9.77;;
24650;SDS011;12783;48.824;8.662;2022-12-18T08:08:48;20.90;;;9.27;;
24650;SDS011;12783;48.824;8.662;2022-12-18T08:11:15;26.67;;;9.65;;
24650;SDS011;12783;48.824;8.662;2022-12-18T08:13:42;26.77;;;10.43;;
24650;SDS011;12783;48.824;8.662;2022-12-18T08:16:09;26.23;;;10.55;;
24650;SDS011;12783;48.824;8.662;2022-12-18T08:18:36;26.52;;;10.90;;
24650;SDS011;12783;48.824;8.662;2022-12-18T08:21:19;23.73;;;10.18;;
24650;SDS011;12783;48.824;8.662;2022-12-18T08:23:49;28.75;;;11.55;;
24650;SDS011;12783;48.824;8.662;2022-12-18T08:26:17;27.83;;;10.85;;
24650;SDS011;12783;48.824;8.662;2022-12-18T08:28:46;26.20;;;10.55;;
24650;SDS011;12783;48.824;8.662;2022-12-18T08:31:13;25.77;;;10.35;;
24650;SDS011;12783;48.824;8.662;2022-12-18T08:33:40;26.90;;;11.77;;
24650;SDS011;12783;48.824;8.662;2022-12-18T08:36:08;26.17;;;12.10;;
24650;SDS011;12783;48.824;8.662;2022-12-18T08:38:35;29.67;;;12.23;;
24650;SDS011;12783;48.824;8.662;2022-12-18T08:41:03;31.73;;;11.65;;
24650;SDS011;12783;48.824;8.662;2022-12-18T08:43:33;24.70;;;11.20;;
24650;SDS011;12783;48.824;8.662;2022-12-18T08:46:20;45.42;;;17.35;;
24650;SDS011;12783;48.824;8.662;2022-12-18T08:48:48;33.42;;;13.73;;
24650;SDS011;12783;48.824;8.662;2022-12-18T08:51:17;27.23;;;11.73;;
24650;SDS011;12783;48.824;8.662;2022-12-18T08:53:44;31.20;;;12.13;;
24650;SDS011;12783;48.824;8.662;2022-12-18T08:56:11;27.70;;;12.80;;
24650;SDS011;12783;48.824;8.662;2022-12-18T08:58:38;30.65;;;13.85;;
24650;SDS011;12783;48.824;8.662;2022-12-18T09:01:06;30.95;;;14.02;;
24650;SDS011;12783;48.824;8.662;2022-12-18T09:03:35;32.58;;;13.05;;
24650;SDS011;12783;48.824;8.662;2022-12-18T09:06:03;28.90;;;11.98;;
24650;SDS011;12783;48.824;8.662;2022-12-18T09:08:30;27.27;;;11.68;;
24650;SDS011;12783;48.824;8.662;2022-12-18T09:10:56;26.15;;;10.82;;
24650;SDS011;12783;48.824;8.662;2022-12-18T09:13:23;25.42;;;10.77;;
24650;SDS011;12783;48.824;8.662;2022-12-18T09:15:51;27.42;;;11.40;;
24650;SDS011;12783;48.824;8.662;2022-12-18T09:18:19;28.92;;;12.13;;
24650;SDS011;12783;48.824;8.662;2022-12-18T09:20:46;27.50;;;11.63;;
24650;SDS011;12783;48.824;8.662;2022-12-18T09:23:13;29.33;;;12.43;;
24650;SDS011;12783;48.824;8.662;2022-12-18T09:25:40;27.17;;;11.27;;
24650;SDS011;12783;48.824;8.662;2022-12-18T09:28:12;33.45;;;12.82;;
24650;SDS011;12783;48.824;8.662;2022-12-18T09:30:42;27.53;;;12.77;;
24650;SDS011;12783;48.824;8.662;2022-12-18T09:33:13;29.10;;;12.40;;
24650;SDS011;12783;48.824;8.662;2022-12-18T09:35:40;30.38;;;12.52;;
24650;SDS011;12783;48.824;8.662;2022-12-18T09:38:08;34.10;;;14.00;;
24650;SDS011;12783;48.824;8.662;2022-12-18T09:40:41;34.92;;;14.68;;
24650;SDS011;12783;48.824;8.662;2022-12-18T09:43:13;39.03;;;14.85;;
24650;SDS011;12783;48.824;8.662;2022-12-18T09:45:55;38.08;;;15.93;;
24650;SDS011;12783;48.824;8.662;2022-12-18T09:48:26;34.38;;;15.15;;
24650;SDS011;12783;48.824;8.662;2022-12-18T09:50:58;38.42;;;14.32;;
24650;SDS011;12783;48.824;8.662;2022-12-18T09:53:30;35.42;;;14.57;;
24650;SDS011;12783;48.824;8.662;2022-12-18T09:55:58;33.63;;;15.18;;
24650;SDS011;12783;48.824;8.662;2022-12-18T09:58:38;40.90;;;15.90;;
24650;SDS011;12783;48.824;8.662;2022-12-18T10:01:14;42.17;;;15.68;;
24650;SDS011;12783;48.824;8.662;2022-12-18T10:03:44;44.42;;;17.65;;
24650;SDS011;12783;48.824;8.662;2022-12-18T10:09:05;38.17;;;15.77;;
24650;SDS011;12783;48.824;8.662;2022-12-18T10:19:40;37.13;;;15.63;;
24650;SDS011;12783;48.824;8.662;2022-12-18T10:27:51;40.78;;;15.82;;
24650;SDS011;12783;48.824;8.662;2022-12-18T10:30:24;41.72;;;16.02;;
24650;SDS011;12783;48.824;8.662;2022-12-18T10:32:51;38.63;;;16.15;;
24650;SDS011;12783;48.824;8.662;2022-12-18T10:35:23;38.25;;;15.30;;
24650;SDS011;12783;48.824;8.662;2022-12-18T10:40:27;38.13;;;15.73;;
24650;SDS011;12783;48.824;8.662;2022-12-18T10:43:04;37.63;;;15.50;;
24650;SDS011;12783;48.824;8.662;2022-12-18T10:45:37;39.28;;;15.55;;
24650;SDS011;12783;48.824;8.662;2022-12-18T10:48:04;38.05;;;16.58;;
24650;SDS011;12783;48.824;8.662;2022-12-18T10:50:32;31.95;;;14.57;;
24650;SDS011;12783;48.824;8.662;2022-12-18T10:53:24;33.83;;;14.63;;
24650;SDS011;12783;48.824;8.662;2022-12-18T10:55:54;33.67;;;14.85;;
24650;SDS011;12783;48.824;8.662;2022-12-18T11:06:05;34.47;;;15.02;;
24650;SDS011;12783;48.824;8.662;2022-12-18T11:08:33;46.45;;;19.23;;
24650;SDS011;12783;48.824;8.662;2022-12-18T11:11:01;42.25;;;16.85;;
24650;SDS011;12783;48.824;8.662;2022-12-18T11:13:29;41.95;;;17.73;;
24650;SDS011;12783;48.824;8.662;2022-12-18T11:15:56;47.60;;;18.77;;
24650;SDS011;12783;48.824;8.662;2022-12-18T11:21:00;42.67;;;17.45;;
24650;SDS011;12783;48.824;8.662;2022-12-18T11:23:36;40.28;;;16.92;;
24650;SDS011;12783;48.824;8.662;2022-12-18T11:26:04;45.10;;;18.42;;
24650;SDS011;12783;48.824;8.662;2022-12-18T11:33:57;46.75;;;18.13;;
24650;SDS011;12783;48.824;8.662;2022-12-18T11:36:51;42.72;;;17.40;;
24650;SDS011;12783;48.824;8.662;2022-12-18T11:39:20;43.65;;;18.38;;
24650;SDS011;12783;48.824;8.662;2022-12-18T11:41:59;47.50;;;20.20;;
24650;SDS011;12783;48.824;8.662;2022-12-18T11:50:55;46.83;;;18.65;;
24650;SDS011;12783;48.824;8.662;2022-12-18T11:52:58;52.13;;;19.67;;
24650;SDS011;12783;48.824;8.662;2022-12-18T11:55:49;52.20;;;20.42;;
24650;SDS011;12783;48.824;8.662;2022-12-18T11:59:04;52.55;;;19.83;;
24650;SDS011;12783;48.824;8.662;2022-12-18T12:07:22;50.33;;;20.75;;
24650;SDS011;12783;48.824;8.662;2022-12-18T12:10:08;52.47;;;20.25;;
24650;SDS011;12783;48.824;8.662;2022-12-18T12:13:25;53.40;;;19.45;;
24650;SDS011;12783;48.824;8.662;2022-12-18T12:16:11;54.08;;;19.48;;
24650;SDS011;12783;48.824;8.662;2022-12-18T12:21:39;44.75;;;18.25;;
24650;SDS011;12783;48.824;8.662;2022-12-18T12:27:02;50.85;;;20.08;;
24650;SDS011;12783;48.824;8.662;2022-12-18T12:38:13;54.10;;;21.60;;
24650;SDS011;12783;48.824;8.662;2022-12-18T12:40:57;58.20;;;22.48;;
24650;SDS011;12783;48.824;8.662;2022-12-18T12:43:46;62.53;;;23.20;;
24650;SDS011;12783;48.824;8.662;2022-12-18T12:46:17;57.75;;;23.20;;
24650;SDS011;12783;48.824;8.662;2022-12-18T12:48:48;48.17;;;20.20;;
24650;SDS011;12783;48.824;8.662;2022-12-18T12:54:04;52.50;;;20.25;;
24650;SDS011;12783;48.824;8.662;2022-12-18T12:56:38;55.33;;;22.27;;
24650;SDS011;12783;48.824;8.662;2022-12-18T12:59:30;47.33;;;19.85;;
24650;SDS011;12783;48.824;8.662;2022-12-18T13:02:32;52.67;;;20.77;;
24650;SDS011;12783;48.824;8.662;2022-12-18T13:08:03;52.33;;;22.33;;
24650;SDS011;12783;48.824;8.662;2022-12-18T13:15:39;59.55;;;22.20;;
24650;SDS011;12783;48.824;8.662;2022-12-18T13:18:13;51.60;;;22.23;;
24650;SDS011;12783;48.824;8.662;2022-12-18T13:23:35;53.67;;;21.23;;
24650;SDS011;12783;48.824;8.662;2022-12-18T13:31:15;56.17;;;22.13;;
24650;SDS011;12783;48.824;8.662;2022-12-18T13:34:21;49.17;;;20.20;;
24650;SDS011;12783;48.824;8.662;2022-12-18T13:36:54;57.25;;;21.63;;
24650;SDS011;12783;48.824;8.662;2022-12-18T13:39:25;56.53;;;22.67;;
24650;SDS011;12783;48.824;8.662;2022-12-18T13:44:56;61.50;;;22.27;;
24650;SDS011;12783;48.824;8.662;2022-12-18T13:47:30;54.90;;;21.27;;
24650;SDS011;12783;48.824;8.662;2022-12-18T13:52:28;56.65;;;22.30;;
24650;SDS011;12783;48.824;8.662;2022-12-18T13:54:56;54.17;;;21.88;;
24650;SDS011;12783;48.824;8.662;2022-12-18T13:57:28;53.42;;;22.45;;
24650;SDS011;12783;48.824;8.662;2022-12-18T14:00:23;60.40;;;23.35;;
24650;SDS011;12783;48.824;8.662;2022-12-18T14:02:55;120.15;;;44.70;;
24650;SDS011;12783;48.824;8.662;2022-12-18T14:05:24;69.70;;;27.50;;
24650;SDS011;12783;48.824;8.662;2022-12-18T14:07:58;59.60;;;25.73;;
24650;SDS011;12783;48.824;8.662;2022-12-18T14:10:28;60.45;;;23.38;;
24650;SDS011;12783;48.824;8.662;2022-12-18T14:13:23;53.30;;;23.25;;
24650;SDS011;12783;48.824;8.662;2022-12-18T14:15:54;57.38;;;21.80;;
24650;SDS011;12783;48.824;8.662;2022-12-18T14:20:53;51.30;;;21.08;;
24650;SDS011;12783;48.824;8.662;2022-12-18T14:23:27;52.50;;;19.92;;
24650;SDS011;12783;48.824;8.662;2022-12-18T14:25:56;53.33;;;19.77;;
24650;SDS011;12783;48.824;8.662;2022-12-18T14:28:30;49.25;;;19.23;;
24650;SDS011;12783;48.824;8.662;2022-12-18T14:30:57;56.63;;;20.98;;
24650;SDS011;12783;48.824;8.662;2022-12-18T14:33:25;52.97;;;20.42;;
24650;SDS011;12783;48.824;8.662;2022-12-18T14:35:57;58.05;;;21.48;;
24650;SDS011;12783;48.824;8.662;2022-12-18T14:38:26;52.88;;;20.38;;
24650;SDS011;12783;48.824;8.662;2022-12-18T14:40:54;52.05;;;20.60;;
24650;SDS011;12783;48.824;8.662;2022-12-18T14:43:22;49.75;;;19.55;;
24650;SDS011;12783;48.824;8.662;2022-12-18T14:45:49;43.53;;;18.45;;
24650;SDS011;12783;48.824;8.662;2022-12-18T14:48:19;42.67;;;17.17;;
24650;SDS011;12783;48.824;8.662;2022-12-18T14:50:59;46.50;;;18.52;;
24650;SDS011;12783;48.824;8.662;2022-12-18T14:53:43;45.08;;;18.70;;
24650;SDS011;12783;48.824;8.662;2022-12-18T14:56:21;47.10;;;19.55;;
24650;SDS011;12783;48.824;8.662;2022-12-18T14:58:58;57.97;;;19.20;;
24650;SDS011;12783;48.824;8.662;2022-12-18T15:03:55;54.72;;;20.50;;
24650;SDS011;12783;48.824;8.662;2022-12-18T15:06:36;47.63;;;18.88;;
24650;SDS011;12783;48.824;8.662;2022-12-18T15:09:05;55.15;;;19.80;;
24650;SDS011;12783;48.824;8.662;2022-12-18T15:11:54;50.67;;;19.23;;
24650;SDS011;12783;48.824;8.662;2022-12-18T15:14:30;45.33;;;18.40;;
24650;SDS011;12783;48.824;8.662;2022-12-18T15:17:05;45.78;;;18.67;;
24650;SDS011;12783;48.824;8.662;2022-12-18T15:19:52;43.75;;;16.83;;
24650;SDS011;12783;48.824;8.662;2022-12-18T15:22:28;46.78;;;18.23;;
24650;SDS011;12783;48.824;8.662;2022-12-18T15:24:56;42.63;;;16.20;;
24650;SDS011;12783;48.824;8.662;2022-12-18T15:32:36;38.58;;;15.27;;
24650;SDS011;12783;48.824;8.662;2022-12-18T15:35:11;35.92;;;14.45;;
24650;SDS011;12783;48.824;8.662;2022-12-18T15:37:41;38.50;;;14.25;;
24650;SDS011;12783;48.824;8.662;2022-12-18T15:40:11;38.03;;;14.25;;
24650;SDS011;12783;48.824;8.662;2022-12-18T15:42:42;36.47;;;13.80;;
24650;SDS011;12783;48.824;8.662;2022-12-18T15:45:28;35.85;;;13.98;;
24650;SDS011;12783;48.824;8.662;2022-12-18T15:47:55;29.95;;;12.32;;
24650;SDS011;12783;48.824;8.662;2022-12-18T15:50:22;29.42;;;12.35;;
24650;SDS011;12783;48.824;8.662;2022-12-18T15:52:49;27.42;;;10.50;;
24650;SDS011;12783;48.824;8.662;2022-12-18T15:55:19;25.02;;;10.95;;
24650;SDS011;12783;48.824;8.662;2022-12-18T15:58:06;28.55;;;12.00;;
24650;SDS011;12783;48.824;8.662;2022-12-18T16:00:34;30.80;;;11.52;;
24650;SDS011;12783;48.824;8.662;2022-12-18T16:03:03;29.88;;;11.00;;
24650;SDS011;12783;48.824;8.662;2022-12-18T16:05:31;27.70;;;11.82;;
24650;SDS011;12783;48.824;8.662;2022-12-18T16:07:58;32.58;;;14.00;;
24650;SDS011;12783;48.824;8.662;2022-12-18T16:10:25;34.83;;;13.63;;
24650;SDS011;12783;48.824;8.662;2022-12-18T16:12:52;31.15;;;13.07;;
24650;SDS011;12783;48.824;8.662;2022-12-18T16:15:19;36.25;;;14.23;;
24650;SDS011;12783;48.824;8.662;2022-12-18T16:17:50;34.03;;;13.63;;
24650;SDS011;12783;48.824;8.662;2022-12-18T16:20:21;30.65;;;13.13;;
24650;SDS011;12783;48.824;8.662;2022-12-18T16:22:48;36.25;;;14.13;;
24650;SDS011;12783;48.824;8.662;2022-12-18T16:25:26;34.00;;;13.75;;
24650;SDS011;12783;48.824;8.662;2022-12-18T16:27:53;29.00;;;12.70;;
24650;SDS011;12783;48.824;8.662;2022-12-18T16:30:25;30.10;;;11.85;;
24650;SDS011;12783;48.824;8.662;2022-12-18T16:32:57;28.50;;;11.05;;
24650;SDS011;12783;48.824;8.662;2022-12-18T16:35:25;29.67;;;11.32;;
24650;SDS011;12783;48.824;8.662;2022-12-18T16:37:52;24.83;;;10.70;;
24650;SDS011;12783;48.824;8.662;2022-12-18T16:40:19;25.98;;;9.43;;
24650;SDS011;12783;48.824;8.662;2022-12-18T16:42:46;24.08;;;9.85;;
24650;SDS011;12783;48.824;8.662;2022-12-18T16:45:14;25.58;;;11.10;;
24650;SDS011;12783;48.824;8.662;2022-12-18T16:47:42;24.33;;;11.07;;